createdAt,value
2019-06-26T00:00:42.706Z,101327.23
2019-06-26T00:03:11.351Z,101330.48
2019-06-26T00:06:33.589Z,101328.27
2019-06-26T00:09:02.330Z,101324.55
2019-06-26T00:11:31.119Z,101328.28
2019-06-26T00:13:59.759Z,101327.19
2019-06-26T00:16:28.423Z,101336.59
2019-06-26T00:19:00.179Z,101331.52
2019-06-26T00:21:29.002Z,101335.13
2019-06-26T00:23:57.656Z,101343.44
2019-06-26T00:26:26.421Z,101337.30
2019-06-26T00:28:56.919Z,101338.72
2019-06-26T00:31:28.826Z,101337.88
2019-06-26T00:33:57.780Z,101334.34
2019-06-26T00:36:27.430Z,101338.66
2019-06-26T00:38:57.768Z,101333.36
2019-06-26T00:41:29.772Z,101331.08
2019-06-26T00:43:58.677Z,101336.14
2019-06-26T00:46:27.343Z,101337.25
2019-06-26T00:48:56.318Z,101332.92
2019-06-26T00:51:26.604Z,101331.61
2019-06-26T00:53:55.326Z,101325.44
2019-06-26T00:56:25.085Z,101333.63
2019-06-26T00:58:53.751Z,101333.99
2019-06-26T01:01:22.391Z,101333.38
2019-06-26T01:03:52.677Z,101329.17
2019-06-26T01:06:38.875Z,101329.39
2019-06-26T01:09:07.602Z,101326.88
2019-06-26T01:11:36.442Z,101332.39
2019-06-26T01:14:05.396Z,101332.80
2019-06-26T01:16:34.095Z,101327.16
2019-06-26T01:19:02.876Z,101330.68
2019-06-26T01:21:31.684Z,101330.06
2019-06-26T01:24:00.397Z,101327.31
2019-06-26T01:26:29.109Z,101320.92
2019-06-26T01:28:57.935Z,101324.44
2019-06-26T01:31:26.588Z,101315.13
2019-06-26T01:33:55.962Z,101315.62
2019-06-26T01:36:27.497Z,101312.48
2019-06-26T01:38:57.903Z,101313.23
2019-06-26T01:41:29.820Z,101306.24
2019-06-26T01:44:13.599Z,101311.77
2019-06-26T01:46:28.862Z,101316.97
2019-06-26T01:48:57.502Z,101314.19
2019-06-26T01:51:27.602Z,101310.08
2019-06-26T01:53:58.314Z,101306.12
2019-06-26T01:56:28.452Z,101308.52
2019-06-26T01:58:58.618Z,101310.81
2019-06-26T02:01:30.075Z,101309.71
2019-06-26T02:03:58.898Z,101307.67
2019-06-26T02:06:27.559Z,101311.42
2019-06-26T02:08:57.811Z,101305.64
2019-06-26T02:11:29.300Z,101306.84
2019-06-26T02:13:58.035Z,101303.35
2019-06-26T02:16:26.875Z,101304.19
2019-06-26T02:19:03.292Z,101300.67
2019-06-26T02:21:32.034Z,101297.31
2019-06-26T02:24:00.701Z,101299.70
2019-06-26T02:26:29.510Z,101303.58
2019-06-26T02:28:58.231Z,101297.80
2019-06-26T02:31:27.189Z,101300.90
2019-06-26T02:33:55.838Z,101300.55
2019-06-26T02:36:26.723Z,101298.61
2019-06-26T02:38:55.444Z,101291.41
2019-06-26T02:41:26.439Z,101292.59
2019-06-26T02:43:55.383Z,101290.56
2019-06-26T02:46:24.213Z,101288.50
2019-06-26T02:48:53.259Z,101285.98
2019-06-26T02:51:21.892Z,101290.66
2019-06-26T02:53:50.553Z,101291.27
2019-06-26T02:56:19.278Z,101284.66
2019-06-26T02:58:48.026Z,101271.41
2019-06-26T03:01:16.708Z,101279.48
2019-06-26T03:03:45.383Z,101282.00
2019-06-26T03:06:14.046Z,101276.36
2019-06-26T03:08:42.987Z,101272.84
2019-06-26T03:11:11.941Z,101269.12
2019-06-26T03:13:40.591Z,101272.22
2019-06-26T03:16:09.680Z,101275.13
2019-06-26T03:18:38.346Z,101270.31
2019-06-26T03:21:06.999Z,101271.90
2019-06-26T03:23:35.660Z,101280.20
2019-06-26T03:26:04.451Z,101274.77
2019-06-26T03:28:33.199Z,101273.93
2019-06-26T03:31:01.885Z,101276.58
2019-06-26T03:33:30.540Z,101276.58
2019-06-26T03:35:59.504Z,101272.96
2019-06-26T03:38:28.354Z,101272.57
2019-06-26T03:40:58.786Z,101277.02
2019-06-26T03:43:27.737Z,101282.53
2019-06-26T03:45:59.447Z,101273.41
2019-06-26T03:48:28.237Z,101275.52
2019-06-26T03:50:57.697Z,101277.95
2019-06-26T03:53:28.782Z,101272.88
2019-06-26T03:55:57.450Z,101269.69
2019-06-26T03:58:27.594Z,101269.82
2019-06-26T04:00:59.121Z,101272.56
2019-06-26T04:03:28.108Z,101278.83
2019-06-26T04:05:56.791Z,101276.31
2019-06-26T04:08:25.593Z,101281.48
2019-06-26T04:10:54.617Z,101276.67
2019-06-26T04:13:23.282Z,101281.03
2019-06-26T04:15:51.934Z,101273.70
2019-06-26T04:18:20.620Z,101281.78
2019-06-26T04:20:49.485Z,101283.94
2019-06-26T04:23:18.164Z,101293.92
2019-06-26T04:25:46.831Z,101303.80
2019-06-26T04:28:15.748Z,101307.68
2019-06-26T04:30:44.453Z,101313.33
2019-06-26T04:33:13.436Z,101313.72
2019-06-26T04:35:42.377Z,101300.69
2019-06-26T04:38:11.203Z,101305.51
2019-06-26T04:40:39.857Z,101304.68
2019-06-26T04:43:08.830Z,101302.38
2019-06-26T04:45:37.494Z,101299.89
2019-06-26T04:48:07.425Z,101300.50
2019-06-26T04:50:36.302Z,101301.67
2019-06-26T04:53:05.010Z,101300.83
2019-06-26T04:55:33.848Z,101309.27
2019-06-26T04:58:02.572Z,101299.84
2019-06-26T05:00:31.354Z,101307.30
2019-06-26T05:03:00.050Z,101304.39
2019-06-26T05:05:39.086Z,101300.03
2019-06-26T05:07:59.050Z,101305.91
2019-06-26T05:10:27.942Z,101304.34
2019-06-26T05:12:56.660Z,101306.62
2019-06-26T05:15:25.320Z,101305.48
2019-06-26T05:17:55.108Z,101300.24
2019-06-26T05:20:23.714Z,101301.87
2019-06-26T05:22:52.670Z,101303.48
2019-06-26T05:25:21.307Z,101300.98
2019-06-26T05:27:50.233Z,101307.56
2019-06-26T05:30:19.574Z,101308.22
2019-06-26T05:32:48.273Z,101312.44
2019-06-26T05:35:17.024Z,101312.22
2019-06-26T05:37:45.793Z,101311.93
2019-06-26T05:40:15.234Z,101310.20
2019-06-26T05:42:43.931Z,101310.80
2019-06-26T05:45:13.381Z,101309.13
2019-06-26T05:47:42.285Z,101313.94
2019-06-26T05:50:11.830Z,101311.51
2019-06-26T05:52:42.693Z,101315.08
2019-06-26T05:55:11.055Z,101309.41
2019-06-26T05:57:41.953Z,101307.94
2019-06-26T06:00:12.005Z,101307.98
2019-06-26T06:02:40.660Z,101308.95
2019-06-26T06:05:09.713Z,101307.32
2019-06-26T06:07:38.602Z,101301.77
2019-06-26T06:10:07.343Z,101303.91
2019-06-26T06:12:36.034Z,101297.83
2019-06-26T06:15:10.167Z,101302.19
2019-06-26T06:17:38.857Z,101308.59
2019-06-26T06:20:08.491Z,101313.98
2019-06-26T06:22:37.949Z,101314.93
2019-06-26T06:25:06.713Z,101317.36
2019-06-26T06:27:35.637Z,101319.14
2019-06-26T06:30:06.861Z,101325.64
2019-06-26T06:32:35.514Z,101324.19
2019-06-26T06:35:04.769Z,101321.27
2019-06-26T06:37:33.486Z,101318.53
2019-06-26T06:40:02.090Z,101323.28
2019-06-26T06:42:31.020Z,101322.21
2019-06-26T06:44:59.739Z,101320.12
2019-06-26T06:47:28.387Z,101326.34
2019-06-26T06:50:00.257Z,101325.42
2019-06-26T06:52:28.910Z,101321.47
2019-06-26T06:54:58.068Z,101322.11
2019-06-26T06:57:27.206Z,101325.18
2019-06-26T06:59:55.930Z,101323.25
2019-06-26T07:02:26.041Z,101324.34
2019-06-26T07:04:54.951Z,101329.58
2019-06-26T07:07:23.737Z,101326.44
2019-06-26T07:09:52.710Z,101330.16
2019-06-26T07:12:21.503Z,101329.19
2019-06-26T07:14:50.216Z,101327.73
2019-06-26T07:17:20.945Z,101336.31
2019-06-26T07:19:49.537Z,101333.68
2019-06-26T07:22:18.274Z,101331.57
2019-06-26T07:24:46.944Z,101333.11
2019-06-26T07:27:15.796Z,101336.28
2019-06-26T07:29:44.457Z,101340.52
2019-06-26T07:32:13.206Z,101339.41
2019-06-26T07:34:42.026Z,101338.93
2019-06-26T07:37:10.683Z,101344.16
2019-06-26T07:39:39.375Z,101343.68
2019-06-26T07:42:08.035Z,101336.97
2019-06-26T07:44:36.831Z,101337.83
2019-06-26T07:47:21.779Z,101342.54
2019-06-26T07:49:36.763Z,101329.66
2019-06-26T07:52:05.686Z,101336.17
2019-06-26T07:54:34.584Z,101332.98
2019-06-26T07:57:03.531Z,101334.00
2019-06-26T07:59:32.265Z,101330.95
2019-06-26T08:02:00.923Z,101336.62
2019-06-26T08:04:29.628Z,101339.66
2019-06-26T08:06:58.609Z,101344.98
2019-06-26T08:09:30.345Z,101353.15
2019-06-26T08:11:59.497Z,101351.61
2019-06-26T08:14:28.304Z,101356.63
2019-06-26T08:16:59.006Z,101350.39
2019-06-26T08:19:27.741Z,101348.85
2019-06-26T08:21:59.059Z,101355.98
2019-06-26T08:24:27.632Z,101350.05
2019-06-26T08:26:56.397Z,101348.79
2019-06-26T08:29:26.588Z,101358.64
2019-06-26T08:31:55.364Z,101348.95
2019-06-26T08:34:25.371Z,101358.41
2019-06-26T08:36:54.208Z,101352.22
2019-06-26T08:39:22.959Z,101351.52
2019-06-26T08:41:51.537Z,101346.34
2019-06-26T08:44:20.209Z,101351.94
2019-06-26T08:46:48.952Z,101349.00
2019-06-26T08:49:25.775Z,101350.70
2019-06-26T08:51:48.059Z,101353.81
2019-06-26T08:54:16.733Z,101352.73
2019-06-26T08:56:46.447Z,101351.09
2019-06-26T08:59:15.110Z,101355.93
2019-06-26T09:01:43.847Z,101359.19
2019-06-26T09:04:12.449Z,101354.95
2019-06-26T09:06:41.508Z,101354.25
2019-06-26T09:09:10.102Z,101353.73
2019-06-26T09:11:38.945Z,101352.14
2019-06-26T09:14:07.797Z,101354.83
2019-06-26T09:16:36.869Z,101350.86
2019-06-26T09:19:05.695Z,101355.69
2019-06-26T09:21:34.759Z,101356.77
2019-06-26T09:24:03.393Z,101358.11
2019-06-26T09:26:32.415Z,101351.16
2019-06-26T09:29:01.068Z,101350.27
2019-06-26T09:31:29.819Z,101350.08
2019-06-26T09:33:58.479Z,101344.05
2019-06-26T09:36:30.150Z,101338.02
2019-06-26T09:38:58.991Z,101337.00
2019-06-26T09:41:28.134Z,101343.94
2019-06-26T09:43:56.778Z,101339.80
2019-06-26T09:46:26.108Z,101334.53
2019-06-26T09:48:55.717Z,101341.23
2019-06-26T09:51:26.165Z,101335.37
2019-06-26T09:53:55.408Z,101334.96
2019-06-26T09:56:24.206Z,101335.70
2019-06-26T09:58:52.924Z,101330.81
2019-06-26T10:01:21.584Z,101320.83
2019-06-26T10:03:50.227Z,101332.81
2019-06-26T10:06:18.925Z,101334.50
2019-06-26T10:08:47.674Z,101332.50
2019-06-26T10:11:16.406Z,101330.95
2019-06-26T10:13:45.066Z,101330.18
2019-06-26T10:16:13.815Z,101325.27
2019-06-26T10:18:42.815Z,101325.48
2019-06-26T10:21:11.586Z,101324.13
2019-06-26T10:23:40.250Z,101310.26
2019-06-26T10:26:08.822Z,101314.08
2019-06-26T10:28:37.687Z,101317.34
2019-06-26T10:31:06.397Z,101310.55
2019-06-26T10:33:35.155Z,101313.71
2019-06-26T10:36:04.202Z,101307.24
2019-06-26T10:38:32.859Z,101308.20
2019-06-26T10:41:01.509Z,101310.73
2019-06-26T10:43:30.154Z,101302.38
2019-06-26T10:45:58.869Z,101298.63
2019-06-26T10:48:27.511Z,101300.95
2019-06-26T10:50:58.983Z,101294.96
2019-06-26T10:53:27.750Z,101295.63
2019-06-26T10:55:59.158Z,101294.13
2019-06-26T10:58:27.987Z,101290.84
2019-06-26T11:00:56.709Z,101278.86
2019-06-26T11:03:25.851Z,101283.69
2019-06-26T11:05:55.020Z,101283.30
2019-06-26T11:08:25.450Z,101285.17
2019-06-26T11:10:56.055Z,101270.95
2019-06-26T11:13:27.698Z,101267.81
2019-06-26T11:15:59.120Z,101269.97
2019-06-26T11:18:28.086Z,101272.70
2019-06-26T11:20:56.732Z,101265.24
2019-06-26T11:23:25.484Z,101266.23
2019-06-26T11:25:54.051Z,101264.16
2019-06-26T11:28:22.713Z,101260.69
2019-06-26T11:30:51.395Z,101259.09
2019-06-26T11:33:20.046Z,101255.33
2019-06-26T11:35:48.784Z,101253.84
2019-06-26T11:38:17.529Z,101249.91
2019-06-26T11:40:46.665Z,101245.88
2019-06-26T11:43:15.302Z,101248.19
2019-06-26T11:45:43.990Z,101248.66
2019-06-26T11:48:12.639Z,101250.70
2019-06-26T11:50:41.284Z,101248.76
2019-06-26T11:53:09.973Z,101242.43
2019-06-26T11:55:38.670Z,101237.61
2019-06-26T11:58:07.494Z,101237.47
2019-06-26T12:00:36.196Z,101237.34
2019-06-26T12:03:05.240Z,101237.03
2019-06-26T12:05:33.978Z,101233.83
2019-06-26T12:08:03.238Z,101232.55
2019-06-26T12:10:32.012Z,101228.36
2019-06-26T12:13:03.883Z,101231.73
2019-06-26T12:15:31.079Z,101224.86
2019-06-26T12:17:59.710Z,101224.08
2019-06-26T12:20:28.530Z,101226.58
2019-06-26T12:23:00.301Z,101226.44
2019-06-26T12:25:28.966Z,101216.11
2019-06-26T12:27:57.922Z,101223.31
2019-06-26T12:30:27.706Z,101219.49
2019-06-26T12:33:03.300Z,101218.34
2019-06-26T12:35:29.418Z,101215.35
2019-06-26T12:37:58.456Z,101217.80
2019-06-26T12:40:31.488Z,101207.25
2019-06-26T12:43:00.157Z,101208.00
2019-06-26T12:45:29.048Z,101210.07
2019-06-26T12:47:57.704Z,101204.80
2019-06-26T12:50:35.289Z,101213.07
2019-06-26T12:52:59.676Z,101211.21
2019-06-26T12:55:32.775Z,101202.32
2019-06-26T12:58:12.674Z,101197.38
2019-06-26T13:00:29.839Z,101205.12
2019-06-26T13:02:58.535Z,101205.78
2019-06-26T13:05:29.896Z,101202.63
2019-06-26T13:07:58.833Z,101193.09
2019-06-26T13:10:27.521Z,101193.17
2019-06-26T13:12:57.701Z,101196.73
2019-06-26T13:15:29.356Z,101194.64
2019-06-26T13:18:01.369Z,101201.87
2019-06-26T13:20:28.568Z,101203.23
2019-06-26T13:22:59.967Z,101197.67
2019-06-26T13:25:28.816Z,101200.22
2019-06-26T13:27:57.511Z,101193.17
2019-06-26T13:30:37.991Z,101198.53
2019-06-26T13:33:06.824Z,101194.62
2019-06-26T13:35:35.513Z,101197.54
2019-06-26T13:38:04.157Z,101187.27
2019-06-26T13:40:32.733Z,101187.67
2019-06-26T13:43:01.373Z,101193.55
2019-06-26T13:45:30.158Z,101190.67
2019-06-26T13:47:58.903Z,101185.27
2019-06-26T13:50:27.744Z,101190.01
2019-06-26T13:52:59.709Z,101192.47
2019-06-26T13:55:28.946Z,101198.29
2019-06-26T13:57:57.678Z,101183.77
2019-06-26T14:00:29.688Z,101186.80
2019-06-26T14:02:58.398Z,101189.30
2019-06-26T14:05:29.538Z,101191.64
2019-06-26T14:07:57.750Z,101176.32
2019-06-26T14:10:29.167Z,101176.97
2019-06-26T14:12:58.121Z,101187.06
2019-06-26T14:15:26.919Z,101184.11
2019-06-26T14:17:58.542Z,101175.08
2019-06-26T14:20:30.123Z,101176.60
2019-06-26T14:22:59.084Z,101176.65
2019-06-26T14:25:27.752Z,101176.27
2019-06-26T14:27:59.168Z,101177.97
2019-06-26T14:30:28.250Z,101176.59
2019-06-26T14:32:58.301Z,101167.91
2019-06-26T14:35:28.701Z,101169.28
2019-06-26T14:37:57.354Z,101177.18
2019-06-26T14:40:27.465Z,101173.06
2019-06-26T14:42:57.552Z,101157.60
2019-06-26T14:45:27.945Z,101163.27
2019-06-26T14:47:56.600Z,101155.32
2019-06-26T14:50:25.244Z,101170.69
2019-06-26T14:52:55.909Z,101163.69
2019-06-26T14:55:25.183Z,101164.59
2019-06-26T14:57:53.680Z,101163.21
2019-06-26T15:00:22.323Z,101164.14
2019-06-26T15:02:51.122Z,101161.03
2019-06-26T15:05:19.843Z,101161.27
2019-06-26T15:07:50.217Z,101158.97
2019-06-26T15:10:19.569Z,101160.93
2019-06-26T15:12:48.296Z,101158.11
2019-06-26T15:15:17.237Z,101161.63
2019-06-26T15:17:46.118Z,101164.30
2019-06-26T15:20:16.532Z,101161.08
2019-06-26T15:22:45.230Z,101156.64
2019-06-26T15:25:14.513Z,101155.01
2019-06-26T15:27:43.180Z,101144.41
2019-06-26T15:30:12.208Z,101151.91
2019-06-26T15:32:40.847Z,101145.06
2019-06-26T15:35:09.731Z,101140.91
2019-06-26T15:37:38.593Z,101145.60
2019-06-26T15:40:07.854Z,101141.55
2019-06-26T15:42:36.506Z,101133.64
2019-06-26T15:45:06.597Z,101126.86
2019-06-26T15:47:35.330Z,101125.67
2019-06-26T15:50:10.758Z,101118.26
2019-06-26T15:52:39.111Z,101126.64
2019-06-26T15:55:08.290Z,101120.63
2019-06-26T15:57:36.968Z,101113.19
2019-06-26T16:00:06.810Z,101109.73
2019-06-26T16:02:35.494Z,101116.06
2019-06-26T16:05:05.950Z,101109.81
2019-06-26T16:07:34.597Z,101117.48
2019-06-26T16:10:04.448Z,101121.41
2019-06-26T16:12:33.109Z,101124.06
2019-06-26T16:15:01.935Z,101122.47
2019-06-26T16:17:35.141Z,101115.45
2019-06-26T16:20:05.063Z,101126.45
2019-06-26T16:22:33.635Z,101123.05
2019-06-26T16:25:02.374Z,101123.56
2019-06-26T16:27:30.981Z,101123.00
2019-06-26T16:29:59.763Z,101121.35
2019-06-26T16:32:28.501Z,101123.73
2019-06-26T16:35:00.205Z,101117.00
2019-06-26T16:37:29.053Z,101117.53
2019-06-26T16:39:57.710Z,101125.14
2019-06-26T16:42:29.465Z,101129.41
2019-06-26T16:44:58.121Z,101123.92
2019-06-26T16:47:27.119Z,101118.08
2019-06-26T16:49:55.815Z,101121.45
2019-06-26T16:52:26.659Z,101124.02
2019-06-26T16:54:55.434Z,101124.34
2019-06-26T16:57:24.142Z,101125.63
2019-06-26T17:00:08.496Z,101131.15
2019-06-26T17:02:23.450Z,101126.08
2019-06-26T17:04:52.203Z,101130.22
2019-06-26T17:07:20.932Z,101129.34
2019-06-26T17:09:49.679Z,101128.44
2019-06-26T17:12:18.798Z,101129.38
2019-06-26T17:14:47.543Z,101132.49
2019-06-26T17:17:16.269Z,101135.41
2019-06-26T17:19:45.029Z,101135.70
2019-06-26T17:22:13.828Z,101136.03
2019-06-26T17:24:42.889Z,101136.34
2019-06-26T17:27:11.625Z,101136.56
2019-06-26T17:29:40.468Z,101139.23
2019-06-26T17:32:09.193Z,101146.83
2019-06-26T17:34:38.051Z,101143.89
2019-06-26T17:37:06.887Z,101142.52
2019-06-26T17:39:35.933Z,101146.66
2019-06-26T17:42:04.884Z,101150.38
2019-06-26T17:44:33.739Z,101149.98
2019-06-26T17:47:05.376Z,101163.96
2019-06-26T17:49:33.341Z,101159.38
2019-06-26T17:52:02.518Z,101161.65
2019-06-26T17:54:31.325Z,101165.17
2019-06-26T17:57:00.067Z,101161.12
2019-06-26T17:59:28.803Z,101166.80
2019-06-26T18:01:57.742Z,101169.09
2019-06-26T18:04:29.766Z,101169.98
2019-06-26T18:06:58.607Z,101171.22
2019-06-26T18:09:30.619Z,101173.16
2019-06-26T18:11:59.768Z,101178.59
2019-06-26T18:14:28.500Z,101179.87
2019-06-26T18:16:59.916Z,101178.07
2019-06-26T18:19:28.663Z,101181.45
2019-06-26T18:22:00.267Z,101182.80
2019-06-26T18:24:28.906Z,101190.75
2019-06-26T18:26:58.055Z,101193.70
2019-06-26T18:29:26.898Z,101201.80
2019-06-26T18:31:55.721Z,101203.63
2019-06-26T18:34:25.181Z,101203.08
2019-06-26T18:36:55.172Z,101207.94
2019-06-26T18:39:24.067Z,101209.19
2019-06-26T18:41:53.081Z,101214.45
2019-06-26T18:44:21.805Z,101212.09
2019-06-26T18:46:50.710Z,101215.76
2019-06-26T18:49:19.900Z,101222.03
2019-06-26T18:51:48.671Z,101224.37
2019-06-26T18:54:17.950Z,101230.57
2019-06-26T18:56:49.929Z,101228.75
2019-06-26T18:59:18.699Z,101236.22
2019-06-26T19:01:47.538Z,101241.41
2019-06-26T19:04:16.481Z,101244.64
2019-06-26T19:06:47.094Z,101250.56
2019-06-26T19:09:16.226Z,101245.56
2019-06-26T19:11:44.968Z,101245.14
2019-06-26T19:14:13.701Z,101255.00
2019-06-26T19:16:42.438Z,101249.33
2019-06-26T19:19:12.325Z,101248.87
2019-06-26T19:21:41.264Z,101254.44
2019-06-26T19:24:10.839Z,101261.03
2019-06-26T19:26:39.702Z,101264.47
2019-06-26T19:29:08.432Z,101268.33
2019-06-26T19:31:37.390Z,101265.85
2019-06-26T19:34:06.122Z,101271.41
2019-06-26T19:36:49.186Z,101274.78
2019-06-26T19:39:07.106Z,101282.67
2019-06-26T19:41:35.937Z,101278.85
2019-06-26T19:44:04.787Z,101282.38
2019-06-26T19:46:33.638Z,101282.75
2019-06-26T19:49:02.473Z,101291.44
2019-06-26T19:51:31.501Z,101291.11
2019-06-26T19:54:00.231Z,101297.13
2019-06-26T19:56:28.973Z,101305.34
2019-06-26T19:58:57.713Z,101310.17
2019-06-26T20:01:29.545Z,101314.87
2019-06-26T20:03:58.247Z,101308.67
2019-06-26T20:06:28.370Z,101313.84
2019-06-26T20:08:58.867Z,101313.69
2019-06-26T20:11:27.694Z,101312.34
2019-06-26T20:13:59.411Z,101321.19
2019-06-26T20:16:28.370Z,101313.64
2019-06-26T20:18:58.529Z,101326.50
2019-06-26T20:21:30.030Z,101313.94
2019-06-26T20:23:58.765Z,101312.25
2019-06-26T20:26:27.632Z,101318.41
2019-06-26T20:28:56.570Z,101319.19
2019-06-26T20:31:25.688Z,101312.67
2019-06-26T20:33:54.556Z,101323.19
2019-06-26T20:36:23.286Z,101322.14
2019-06-26T20:38:51.941Z,101326.61
2019-06-26T20:41:20.829Z,101327.27
2019-06-26T20:43:50.268Z,101329.69
2019-06-26T20:46:19.091Z,101332.53
2019-06-26T20:48:47.850Z,101331.48
2019-06-26T20:51:20.568Z,101337.97
2019-06-26T20:53:47.590Z,101342.98
2019-06-26T20:56:16.786Z,101344.09
2019-06-26T20:58:45.482Z,101341.69
2019-06-26T21:01:14.331Z,101340.78
2019-06-26T21:03:43.084Z,101342.28
2019-06-26T21:06:11.919Z,101350.56
2019-06-26T21:08:40.876Z,101347.69
2019-06-26T21:11:09.721Z,101347.38
2019-06-26T21:13:38.388Z,101353.34
2019-06-26T21:16:07.130Z,101361.61
2019-06-26T21:18:36.523Z,101360.66
2019-06-26T21:21:05.252Z,101364.61
2019-06-26T21:23:34.012Z,101369.86
2019-06-26T21:26:02.771Z,101370.49
2019-06-26T21:28:31.538Z,101374.45
2019-06-26T21:31:00.601Z,101375.27
2019-06-26T21:33:29.448Z,101381.74
2019-06-26T21:35:58.341Z,101384.03
2019-06-26T21:38:28.967Z,101382.02
2019-06-26T21:40:57.692Z,101371.53
2019-06-26T21:43:29.206Z,101375.36
2019-06-26T21:45:57.855Z,101377.89
2019-06-26T21:48:29.357Z,101375.55
2019-06-26T21:50:58.007Z,101377.50
2019-06-26T21:53:26.715Z,101372.23
2019-06-26T21:55:55.752Z,101382.45
2019-06-26T21:58:26.604Z,101386.41
2019-06-26T22:00:55.762Z,101390.82
2019-06-26T22:03:26.201Z,101384.16
2019-06-26T22:05:55.124Z,101387.81
2019-06-26T22:08:23.781Z,101388.41
2019-06-26T22:10:52.974Z,101397.59
2019-06-26T22:13:22.000Z,101399.78
2019-06-26T22:15:50.828Z,101403.03
2019-06-26T22:18:19.488Z,101405.06
2019-06-26T22:20:48.134Z,101403.59
2019-06-26T22:23:16.847Z,101400.94
2019-06-26T22:25:50.862Z,101410.62
2019-06-26T22:28:16.347Z,101416.02
2019-06-26T22:30:45.099Z,101411.39
2019-06-26T22:33:13.857Z,101413.64
2019-06-26T22:35:43.440Z,101420.30
2019-06-26T22:38:12.365Z,101415.66
2019-06-26T22:40:41.353Z,101419.69
2019-06-26T22:43:10.075Z,101424.02
2019-06-26T22:45:38.739Z,101417.51
2019-06-26T22:48:07.778Z,101423.09
2019-06-26T22:50:36.461Z,101423.08
2019-06-26T22:53:05.359Z,101418.73
2019-06-26T22:55:34.005Z,101427.46
2019-06-26T22:58:02.665Z,101431.37
2019-06-26T23:00:31.510Z,101434.29
2019-06-26T23:03:00.356Z,101426.25
2019-06-26T23:05:29.289Z,101425.93
2019-06-26T23:07:57.996Z,101428.91
2019-06-26T23:10:26.643Z,101432.70
2019-06-26T23:12:55.524Z,101431.84
2019-06-26T23:15:24.896Z,101428.47
2019-06-26T23:17:53.620Z,101430.48
2019-06-26T23:20:22.350Z,101436.92
2019-06-26T23:22:51.515Z,101438.79
2019-06-26T23:25:20.643Z,101437.86
2019-06-26T23:27:49.293Z,101435.38
2019-06-26T23:30:19.038Z,101443.16
2019-06-26T23:32:47.935Z,101443.44
2019-06-26T23:35:16.577Z,101448.39
2019-06-26T23:37:45.275Z,101446.39
2019-06-26T23:40:14.022Z,101446.17
2019-06-26T23:42:42.799Z,101457.39
2019-06-26T23:45:11.932Z,101458.41
2019-06-26T23:47:40.598Z,101466.75
2019-06-26T23:50:09.249Z,101464.34
2019-06-26T23:52:37.946Z,101466.27
2019-06-26T23:55:06.978Z,101458.00
2019-06-26T23:57:35.658Z,101466.33
